METAR Data
IDs: Format: Raw Decoded Include TAF

Data at: 0208 UTC 01 Feb 2023

METAR for:EKRN (Ronne/Bornholm Arpt, HO, DK)
Text:EKRN 010150Z AUTO 28027G40KT 9999 BKN024/// 05/02 Q0999
Temperature: 5.0°C ( 41°F)
Dewpoint: 2.0°C ( 36°F) [RH = 81%]
Pressure (altimeter):29.50 inches Hg ( 999.0 mb)
Winds:from the W (280 degrees) at 31 MPH (27 knots; 13.9 m/s) gusting to 46 MPH (40 knots; 20.6 m/s)
Visibility:6 or more sm (10+ km)
Ceiling:2400 feet AGL
Clouds: broken clouds at 2400 feet AGL
Text:EKRN 010120Z AUTO 28026G36KT 9999 OVC018/// 05/02 Q0999
Temperature: 5.0°C ( 41°F)
Dewpoint: 2.0°C ( 36°F) [RH = 81%]
Pressure (altimeter):29.50 inches Hg ( 999.0 mb)
Winds:from the W (280 degrees) at 30 MPH (26 knots; 13.4 m/s) gusting to 41 MPH (36 knots; 18.5 m/s)
Visibility:6 or more sm (10+ km)
Ceiling:1800 feet AGL
Clouds: overcast cloud deck at 1800 feet AGL
Text:EKRN 010050Z AUTO 27029G41KT 9999 OVC020/// 05/02 Q0999
Temperature: 5.0°C ( 41°F)
Dewpoint: 2.0°C ( 36°F) [RH = 81%]
Pressure (altimeter):29.50 inches Hg ( 999.0 mb)
Winds:from the W (270 degrees) at 33 MPH (29 knots; 14.9 m/s) gusting to 47 MPH (41 knots; 21.1 m/s)
Visibility:6 or more sm (10+ km)
Ceiling:2000 feet AGL
Clouds: overcast cloud deck at 2000 feet AGL
Text:EKRN 010020Z AUTO 28027G38KT 9999 OVC021/// 05/02 Q0999
Temperature: 5.0°C ( 41°F)
Dewpoint: 2.0°C ( 36°F) [RH = 81%]
Pressure (altimeter):29.50 inches Hg ( 999.0 mb)
Winds:from the W (280 degrees) at 31 MPH (27 knots; 13.9 m/s) gusting to 44 MPH (38 knots; 19.5 m/s)
Visibility:6 or more sm (10+ km)
Ceiling:2100 feet AGL
Clouds: overcast cloud deck at 2100 feet AGL
Text:EKRN 312350Z AUTO 27025G35KT 9999 BKN020/// 05/02 Q1000
Temperature: 5.0°C ( 41°F)
Dewpoint: 2.0°C ( 36°F) [RH = 81%]
Pressure (altimeter):29.53 inches Hg (1000.0 mb)
Winds:from the W (270 degrees) at 29 MPH (25 knots; 12.9 m/s) gusting to 40 MPH (35 knots; 18.0 m/s)
Visibility:6 or more sm (10+ km)
Ceiling:2000 feet AGL
Clouds: broken clouds at 2000 feet AGL
Text:EKRN 312320Z AUTO 28028KT 9999 BKN017/// 05/02 Q1000
Temperature: 5.0°C ( 41°F)
Dewpoint: 2.0°C ( 36°F) [RH = 81%]
Pressure (altimeter):29.53 inches Hg (1000.0 mb)
Winds:from the W (280 degrees) at 32 MPH (28 knots; 14.4 m/s)
Visibility:6 or more sm (10+ km)
Ceiling:1700 feet AGL
Clouds: broken clouds at 1700 feet AGL
Text:EKRN 312250Z AUTO 27028G39KT 9999 BKN017/// 04/02 Q1000
Temperature: 4.0°C ( 39°F)
Dewpoint: 2.0°C ( 36°F) [RH = 87%]
Pressure (altimeter):29.53 inches Hg (1000.0 mb)
Winds:from the W (270 degrees) at 32 MPH (28 knots; 14.4 m/s) gusting to 45 MPH (39 knots; 20.1 m/s)
Visibility:6 or more sm (10+ km)
Ceiling:1700 feet AGL
Clouds: broken clouds at 1700 feet AGL
Text:EKRN 312220Z AUTO 27028G39KT 9999 BKN020/// 04/02 Q1000
Temperature: 4.0°C ( 39°F)
Dewpoint: 2.0°C ( 36°F) [RH = 87%]
Pressure (altimeter):29.53 inches Hg (1000.0 mb)
Winds:from the W (270 degrees) at 32 MPH (28 knots; 14.4 m/s) gusting to 45 MPH (39 knots; 20.1 m/s)
Visibility:6 or more sm (10+ km)
Ceiling:2000 feet AGL
Clouds: broken clouds at 2000 feet AGL
Text:EKRN 312150Z AUTO 28026G36KT 9999 BKN018/// 04/02 Q0999
Temperature: 4.0°C ( 39°F)
Dewpoint: 2.0°C ( 36°F) [RH = 87%]
Pressure (altimeter):29.50 inches Hg ( 999.0 mb)
Winds:from the W (280 degrees) at 30 MPH (26 knots; 13.4 m/s) gusting to 41 MPH (36 knots; 18.5 m/s)
Visibility:6 or more sm (10+ km)
Ceiling:1800 feet AGL
Clouds: broken clouds at 1800 feet AGL
Text:EKRN 312120Z AUTO 28027G39KT 9999 BKN018/// 04/02 Q0999
Temperature: 4.0°C ( 39°F)
Dewpoint: 2.0°C ( 36°F) [RH = 87%]
Pressure (altimeter):29.50 inches Hg ( 999.0 mb)
Winds:from the W (280 degrees) at 31 MPH (27 knots; 13.9 m/s) gusting to 45 MPH (39 knots; 20.1 m/s)
Visibility:6 or more sm (10+ km)
Ceiling:1800 feet AGL
Clouds: broken clouds at 1800 feet AGL
Text:EKRN 312050Z AUTO 28028G38KT 9999 BKN019/// 04/02 Q0999
Temperature: 4.0°C ( 39°F)
Dewpoint: 2.0°C ( 36°F) [RH = 87%]
Pressure (altimeter):29.50 inches Hg ( 999.0 mb)
Winds:from the W (280 degrees) at 32 MPH (28 knots; 14.4 m/s) gusting to 44 MPH (38 knots; 19.5 m/s)
Visibility:6 or more sm (10+ km)
Ceiling:1900 feet AGL
Clouds: broken clouds at 1900 feet AGL
Text:EKRN 312020Z AUTO 27027G40KT 9999 BKN021/// 05/02 Q0999
Temperature: 5.0°C ( 41°F)
Dewpoint: 2.0°C ( 36°F) [RH = 81%]
Pressure (altimeter):29.50 inches Hg ( 999.0 mb)
Winds:from the W (270 degrees) at 31 MPH (27 knots; 13.9 m/s) gusting to 46 MPH (40 knots; 20.6 m/s)
Visibility:6 or more sm (10+ km)
Ceiling:2100 feet AGL
Clouds: broken clouds at 2100 feet AGL
Text:EKRN 311950Z AUTO 28027G40KT 9999 OVC018/// 05/02 Q0999
Temperature: 5.0°C ( 41°F)
Dewpoint: 2.0°C ( 36°F) [RH = 81%]
Pressure (altimeter):29.50 inches Hg ( 999.0 mb)
Winds:from the W (280 degrees) at 31 MPH (27 knots; 13.9 m/s) gusting to 46 MPH (40 knots; 20.6 m/s)
Visibility:6 or more sm (10+ km)
Ceiling:1800 feet AGL
Clouds: overcast cloud deck at 1800 feet AGL
Text:EKRN 311920Z AUTO 27027G38KT 9999 BKN017/// 04/02 Q0999
Temperature: 4.0°C ( 39°F)
Dewpoint: 2.0°C ( 36°F) [RH = 87%]
Pressure (altimeter):29.50 inches Hg ( 999.0 mb)
Winds:from the W (270 degrees) at 31 MPH (27 knots; 13.9 m/s) gusting to 44 MPH (38 knots; 19.5 m/s)
Visibility:6 or more sm (10+ km)
Ceiling:1700 feet AGL
Clouds: broken clouds at 1700 feet AGL
Text:EKRN 311850Z AUTO 27026G37KT 9999 BKN015/// 04/02 Q0999
Temperature: 4.0°C ( 39°F)
Dewpoint: 2.0°C ( 36°F) [RH = 87%]
Pressure (altimeter):29.50 inches Hg ( 999.0 mb)
Winds:from the W (270 degrees) at 30 MPH (26 knots; 13.4 m/s) gusting to 43 MPH (37 knots; 19.0 m/s)
Visibility:6 or more sm (10+ km)
Ceiling:1500 feet AGL
Clouds: broken clouds at 1500 feet AGL
Text:EKRN 311820Z AUTO 28023G33KT 9999 BKN015/// OVC018/// 04/02 Q0999
Temperature: 4.0°C ( 39°F)
Dewpoint: 2.0°C ( 36°F) [RH = 87%]
Pressure (altimeter):29.50 inches Hg ( 999.0 mb)
Winds:from the W (280 degrees) at 26 MPH (23 knots; 11.8 m/s) gusting to 38 MPH (33 knots; 17.0 m/s)
Visibility:6 or more sm (10+ km)
Ceiling:1500 feet AGL
Clouds: broken clouds at 1500 feet AGL, overcast cloud deck at 1800 feet AGL
Text:EKRN 311750Z AUTO 27033G46KT 8000 -DZ FEW008/// BKN012/// 05/03 Q0999
Temperature: 5.0°C ( 41°F)
Dewpoint: 3.0°C ( 37°F) [RH = 87%]
Pressure (altimeter):29.50 inches Hg ( 999.0 mb)
Winds:from the W (270 degrees) at 38 MPH (33 knots; 17.0 m/s) gusting to 53 MPH (46 knots; 23.7 m/s)
Visibility: 5 sm ( 8 km)
Ceiling:1200 feet AGL
Clouds: few clouds at 800 feet AGL, broken clouds at 1200 feet AGL
Weather:-DZ (light drizzle)
Text:EKRN 311720Z AUTO 25024KT 9999 SCT007/// BKN028/// BKN072/// 06/04 Q0998
Temperature: 6.0°C ( 43°F)
Dewpoint: 4.0°C ( 39°F) [RH = 87%]
Pressure (altimeter):29.47 inches Hg ( 998.0 mb)
Winds:from the WSW (250 degrees) at 28 MPH (24 knots; 12.3 m/s)
Visibility:6 or more sm (10+ km)
Ceiling:2800 feet AGL
Clouds: scattered clouds at 700 feet AGL, broken clouds at 2800 feet AGL, broken clouds at 7200 feet AGL
Text:EKRN 311650Z AUTO 25022KT 9999 OVC004/// 06/05 Q0999
Temperature: 6.0°C ( 43°F)
Dewpoint: 5.0°C ( 41°F) [RH = 93%]
Pressure (altimeter):29.50 inches Hg ( 999.0 mb)
Winds:from the WSW (250 degrees) at 25 MPH (22 knots; 11.3 m/s)
Visibility:6 or more sm (10+ km)
Ceiling:400 feet AGL
Clouds: overcast cloud deck at 400 feet AGL
Text:EKRN 311620Z AUTO 25022G34KT 9999 OVC005/// 05/05 Q1000
Temperature: 5.0°C ( 41°F)
Dewpoint: 5.0°C ( 41°F) [RH = 100%]
Pressure (altimeter):29.53 inches Hg (1000.0 mb)
Winds:from the WSW (250 degrees) at 25 MPH (22 knots; 11.3 m/s) gusting to 39 MPH (34 knots; 17.5 m/s)
Visibility:6 or more sm (10+ km)
Ceiling:500 feet AGL
Clouds: overcast cloud deck at 500 feet AGL
Text:EKRN 311550Z AUTO 24022KT 9999 OVC004/// 05/05 Q1000
Temperature: 5.0°C ( 41°F)
Dewpoint: 5.0°C ( 41°F) [RH = 100%]
Pressure (altimeter):29.53 inches Hg (1000.0 mb)
Winds:from the WSW (240 degrees) at 25 MPH (22 knots; 11.3 m/s)
Visibility:6 or more sm (10+ km)
Ceiling:400 feet AGL
Clouds: overcast cloud deck at 400 feet AGL
Text:EKRN 311520Z AUTO 24020KT 9999 -RA OVC004/// 05/04 Q1001
Temperature: 5.0°C ( 41°F)
Dewpoint: 4.0°C ( 39°F) [RH = 93%]
Pressure (altimeter):29.56 inches Hg (1001.0 mb)
Winds:from the WSW (240 degrees) at 23 MPH (20 knots; 10.3 m/s)
Visibility:6 or more sm (10+ km)
Ceiling:400 feet AGL
Clouds: overcast cloud deck at 400 feet AGL
Weather:-RA (light rain)
Text:EKRN 311450Z AUTO 23021G31KT 9999 -DZ OVC006/// 04/03 Q1002
Temperature: 4.0°C ( 39°F)
Dewpoint: 3.0°C ( 37°F) [RH = 93%]
Pressure (altimeter):29.59 inches Hg (1002.0 mb)
Winds:from the SW (230 degrees) at 24 MPH (21 knots; 10.8 m/s) gusting to 36 MPH (31 knots; 15.9 m/s)
Visibility:6 or more sm (10+ km)
Ceiling:600 feet AGL
Clouds: overcast cloud deck at 600 feet AGL
Weather:-DZ (light drizzle)
Text:EKRN 311420Z AUTO 22018KT 7000 -RA OVC005/// 04/03 Q1002
Temperature: 4.0°C ( 39°F)
Dewpoint: 3.0°C ( 37°F) [RH = 93%]
Pressure (altimeter):29.59 inches Hg (1002.0 mb)
Winds:from the SW (220 degrees) at 21 MPH (18 knots; 9.3 m/s)
Visibility: 4 sm ( 7 km)
Ceiling:500 feet AGL
Clouds: overcast cloud deck at 500 feet AGL
Weather:-RA (light rain)
Text:EKRN 311350Z AUTO 22019KT 3400 -RA BR OVC006/// 03/03 Q1003
Temperature: 3.0°C ( 37°F)
Dewpoint: 3.0°C ( 37°F) [RH = 100%]
Pressure (altimeter):29.62 inches Hg (1003.0 mb)
Winds:from the SW (220 degrees) at 22 MPH (19 knots; 9.8 m/s)
Visibility: 2.11 sm ( 3.40 km)
Ceiling:600 feet AGL
Clouds: overcast cloud deck at 600 feet AGL
Weather:-RA BR (light rain, mist)
Text:EKRN 311320Z AUTO 22019KT 4400 -RA BR OVC006/// 03/02 Q1004
Temperature: 3.0°C ( 37°F)
Dewpoint: 2.0°C ( 36°F) [RH = 93%]
Pressure (altimeter):29.65 inches Hg (1004.0 mb)
Winds:from the SW (220 degrees) at 22 MPH (19 knots; 9.8 m/s)
Visibility: 2.73 sm ( 4.39 km)
Ceiling:600 feet AGL
Clouds: overcast cloud deck at 600 feet AGL
Weather:-RA BR (light rain, mist)
Text:EKRN 311250Z AUTO 23019KT 5000 -RA BKN008/// OVC024/// 03/02 Q1005
Temperature: 3.0°C ( 37°F)
Dewpoint: 2.0°C ( 36°F) [RH = 93%]
Pressure (altimeter):29.68 inches Hg (1005.0 mb)
Winds:from the SW (230 degrees) at 22 MPH (19 knots; 9.8 m/s)
Visibility: 3 sm ( 5 km)
Ceiling:800 feet AGL
Clouds: broken clouds at 800 feet AGL, overcast cloud deck at 2400 feet AGL
Weather:-RA (light rain)
Text:EKRN 311220Z AUTO 24019KT 9999 -RA OVC009/// 03/02 Q1005
Temperature: 3.0°C ( 37°F)
Dewpoint: 2.0°C ( 36°F) [RH = 93%]
Pressure (altimeter):29.68 inches Hg (1005.0 mb)
Winds:from the WSW (240 degrees) at 22 MPH (19 knots; 9.8 m/s)
Visibility:6 or more sm (10+ km)
Ceiling:900 feet AGL
Clouds: overcast cloud deck at 900 feet AGL
Weather:-RA (light rain)
Text:EKRN 311150Z AUTO 24018KT 9999 -RA BKN009/// OVC036/// 04/02 Q1006
Temperature: 4.0°C ( 39°F)
Dewpoint: 2.0°C ( 36°F) [RH = 87%]
Pressure (altimeter):29.70 inches Hg (1006.0 mb)
Winds:from the WSW (240 degrees) at 21 MPH (18 knots; 9.3 m/s)
Visibility:6 or more sm (10+ km)
Ceiling:900 feet AGL
Clouds: broken clouds at 900 feet AGL, overcast cloud deck at 3600 feet AGL
Weather:-RA (light rain)
Text:EKRN 311120Z AUTO 25018KT 9999 SCT010/// OVC042/// 04/02 Q1007
Temperature: 4.0°C ( 39°F)
Dewpoint: 2.0°C ( 36°F) [RH = 87%]
Pressure (altimeter):29.73 inches Hg (1007.0 mb)
Winds:from the WSW (250 degrees) at 21 MPH (18 knots; 9.3 m/s)
Visibility:6 or more sm (10+ km)
Ceiling:4200 feet AGL
Clouds: scattered clouds at 1000 feet AGL, overcast cloud deck at 4200 feet AGL
Text:EKRN 311050Z AUTO 26021KT 9999 OVC052/// 04/01 Q1008
Temperature: 4.0°C ( 39°F)
Dewpoint: 1.0°C ( 34°F) [RH = 81%]
Pressure (altimeter):29.76 inches Hg (1008.0 mb)
Winds:from the W (260 degrees) at 24 MPH (21 knots; 10.8 m/s)
Visibility:6 or more sm (10+ km)
Ceiling:5200 feet AGL
Clouds: overcast cloud deck at 5200 feet AGL
Text:EKRN 311020Z AUTO 26019KT 9999 FEW016/// SCT043/// BKN059/// BKN100/// 04/01 Q1008
Temperature: 4.0°C ( 39°F)
Dewpoint: 1.0°C ( 34°F) [RH = 81%]
Pressure (altimeter):29.76 inches Hg (1008.0 mb)
Winds:from the W (260 degrees) at 22 MPH (19 knots; 9.8 m/s)
Visibility:6 or more sm (10+ km)
Ceiling:5900 feet AGL
Clouds: few clouds at 1600 feet AGL, scattered clouds at 4300 feet AGL, broken clouds at 5900 feet AGL, broken clouds at 10000 feet AGL
Text:EKRN 310950Z AUTO 27020KT 9999 FEW019/// BKN110/// 04/01 Q1008
Temperature: 4.0°C ( 39°F)
Dewpoint: 1.0°C ( 34°F) [RH = 81%]
Pressure (altimeter):29.76 inches Hg (1008.0 mb)
Winds:from the W (270 degrees) at 23 MPH (20 knots; 10.3 m/s)
Visibility:6 or more sm (10+ km)
Ceiling:11000 feet AGL
Clouds: few clouds at 1900 feet AGL, broken clouds at 11000 feet AGL
Text:EKRN 310920Z AUTO 27018KT 9999 SCT017/// BKN120/// 04/01 Q1009
Temperature: 4.0°C ( 39°F)
Dewpoint: 1.0°C ( 34°F) [RH = 81%]
Pressure (altimeter):29.79 inches Hg (1009.0 mb)
Winds:from the W (270 degrees) at 21 MPH (18 knots; 9.3 m/s)
Visibility:6 or more sm (10+ km)
Ceiling:12000 feet AGL
Clouds: scattered clouds at 1700 feet AGL, broken clouds at 12000 feet AGL
Text:EKRN 310850Z AUTO 28020KT 9999 FEW097/// BKN140/// 04/01 Q1009
Temperature: 4.0°C ( 39°F)
Dewpoint: 1.0°C ( 34°F) [RH = 81%]
Pressure (altimeter):29.79 inches Hg (1009.0 mb)
Winds:from the W (280 degrees) at 23 MPH (20 knots; 10.3 m/s)
Visibility:6 or more sm (10+ km)
Ceiling:14000 feet AGL
Clouds: few clouds at 9700 feet AGL, broken clouds at 14000 feet AGL
Text:EKRN 310820Z 28020KT 9999 SCT016 04/00 Q1009
Temperature: 4.0°C ( 39°F)
Dewpoint: 0.0°C ( 32°F) [RH = 75%]
Pressure (altimeter):29.79 inches Hg (1009.0 mb)
Winds:from the W (280 degrees) at 23 MPH (20 knots; 10.3 m/s)
Visibility:6 or more sm (10+ km)
Ceiling:at least 12,000 feet AGL
Clouds: scattered clouds at 1600 feet AGL
Text:EKRN 310738Z 29017KT 9999 SCT016 04/01 Q1009
Temperature: 4.0°C ( 39°F)
Dewpoint: 1.0°C ( 34°F) [RH = 81%]
Pressure (altimeter):29.79 inches Hg (1009.0 mb)
Winds:from the WNW (290 degrees) at 20 MPH (17 knots; 8.7 m/s)
Visibility:6 or more sm (10+ km)
Ceiling:at least 12,000 feet AGL
Clouds: scattered clouds at 1600 feet AGL
Text:EKRN 310720Z AUTO 29017KT 9999 BKN017/// 03/00 Q1009
Temperature: 3.0°C ( 37°F)
Dewpoint: 0.0°C ( 32°F) [RH = 81%]
Pressure (altimeter):29.79 inches Hg (1009.0 mb)
Winds:from the WNW (290 degrees) at 20 MPH (17 knots; 8.7 m/s)
Visibility:6 or more sm (10+ km)
Ceiling:1700 feet AGL
Clouds: broken clouds at 1700 feet AGL
Text:EKRN 310650Z AUTO 29019KT 9999 BKN018/// BKN160/// 03/00 Q1009
Temperature: 3.0°C ( 37°F)
Dewpoint: 0.0°C ( 32°F) [RH = 81%]
Pressure (altimeter):29.79 inches Hg (1009.0 mb)
Winds:from the WNW (290 degrees) at 22 MPH (19 knots; 9.8 m/s)
Visibility:6 or more sm (10+ km)
Ceiling:1800 feet AGL
Clouds: broken clouds at 1800 feet AGL, broken clouds at 16000 feet AGL
Text:EKRN 310620Z AUTO 29019KT 9999 BKN160/// 03/M00 Q1009
Temperature: 3.0°C ( 37°F)
Dewpoint: 0.0°C ( 32°F) [RH = 81%]
Pressure (altimeter):29.79 inches Hg (1009.0 mb)
Winds:from the WNW (290 degrees) at 22 MPH (19 knots; 9.8 m/s)
Visibility:6 or more sm (10+ km)
Ceiling:16000 feet AGL
Clouds: broken clouds at 16000 feet AGL
Text:EKRN 310550Z AUTO 29019KT 9999 NCD 03/M00 Q1008
Temperature: 3.0°C ( 37°F)
Dewpoint: 0.0°C ( 32°F) [RH = 81%]
Pressure (altimeter):29.76 inches Hg (1008.0 mb)
Winds:from the WNW (290 degrees) at 22 MPH (19 knots; 9.8 m/s)
Visibility:6 or more sm (10+ km)
Ceiling:at least 12,000 feet AGL
Clouds:sky clear below 12,000 feet AGL
Text:EKRN 310520Z AUTO 29018KT 9999 NCD 03/M00 Q1008
Temperature: 3.0°C ( 37°F)
Dewpoint: 0.0°C ( 32°F) [RH = 81%]
Pressure (altimeter):29.76 inches Hg (1008.0 mb)
Winds:from the WNW (290 degrees) at 21 MPH (18 knots; 9.3 m/s)
Visibility:6 or more sm (10+ km)
Ceiling:at least 12,000 feet AGL
Clouds:sky clear below 12,000 feet AGL
Text:EKRN 310450Z AUTO 29018KT 9999 NCD 03/00 Q1008
Temperature: 3.0°C ( 37°F)
Dewpoint: 0.0°C ( 32°F) [RH = 81%]
Pressure (altimeter):29.76 inches Hg (1008.0 mb)
Winds:from the WNW (290 degrees) at 21 MPH (18 knots; 9.3 m/s)
Visibility:6 or more sm (10+ km)
Ceiling:at least 12,000 feet AGL
Clouds:sky clear below 12,000 feet AGL
Text:EKRN 310420Z AUTO 29017KT 9999 FEW240/// 04/00 Q1008
Temperature: 4.0°C ( 39°F)
Dewpoint: 0.0°C ( 32°F) [RH = 75%]
Pressure (altimeter):29.76 inches Hg (1008.0 mb)
Winds:from the WNW (290 degrees) at 20 MPH (17 knots; 8.7 m/s)
Visibility:6 or more sm (10+ km)
Ceiling:at least 12,000 feet AGL
Clouds: few clouds at 24000 feet AGL
Text:EKRN 310350Z AUTO 29018KT 9999 FEW240/// 04/00 Q1008
Temperature: 4.0°C ( 39°F)
Dewpoint: 0.0°C ( 32°F) [RH = 75%]
Pressure (altimeter):29.76 inches Hg (1008.0 mb)
Winds:from the WNW (290 degrees) at 21 MPH (18 knots; 9.3 m/s)
Visibility:6 or more sm (10+ km)
Ceiling:at least 12,000 feet AGL
Clouds: few clouds at 24000 feet AGL
Text:EKRN 310320Z AUTO 30014KT 9999 NCD 04/M00 Q1008
Temperature: 4.0°C ( 39°F)
Dewpoint: 0.0°C ( 32°F) [RH = 75%]
Pressure (altimeter):29.76 inches Hg (1008.0 mb)
Winds:from the WNW (300 degrees) at 16 MPH (14 knots; 7.2 m/s)
Visibility:6 or more sm (10+ km)
Ceiling:at least 12,000 feet AGL
Clouds:sky clear below 12,000 feet AGL
Text:EKRN 310250Z AUTO 30014KT 270V330 9999 NCD 04/M01 Q1007
Temperature: 4.0°C ( 39°F)
Dewpoint: -1.0°C ( 30°F) [RH = 70%]
Pressure (altimeter):29.73 inches Hg (1007.0 mb)
Winds:from the WNW (300 degrees) at 16 MPH (14 knots; 7.2 m/s)
Visibility:6 or more sm (10+ km)
Ceiling:at least 12,000 feet AGL
Clouds:sky clear below 12,000 feet AGL
Text:EKRN 310220Z AUTO 30015KT 9999 NCD 04/M01 Q1007
Temperature: 4.0°C ( 39°F)
Dewpoint: -1.0°C ( 30°F) [RH = 70%]
Pressure (altimeter):29.73 inches Hg (1007.0 mb)
Winds:from the WNW (300 degrees) at 17 MPH (15 knots; 7.7 m/s)
Visibility:6 or more sm (10+ km)
Ceiling:at least 12,000 feet AGL
Clouds:sky clear below 12,000 feet AGL
Text:EKRN 310150Z AUTO 30015G25KT 270V330 9999 NCD 04/M01 Q1007
Temperature: 4.0°C ( 39°F)
Dewpoint: -1.0°C ( 30°F) [RH = 70%]
Pressure (altimeter):29.73 inches Hg (1007.0 mb)
Winds:from the WNW (300 degrees) at 17 MPH (15 knots; 7.7 m/s) gusting to 29 MPH (25 knots; 12.9 m/s)
Visibility:6 or more sm (10+ km)
Ceiling:at least 12,000 feet AGL
Clouds:sky clear below 12,000 feet AGL
Text:EKRN 310120Z AUTO 30017KT 9999 NCD 04/M01 Q1006
Temperature: 4.0°C ( 39°F)
Dewpoint: -1.0°C ( 30°F) [RH = 70%]
Pressure (altimeter):29.70 inches Hg (1006.0 mb)
Winds:from the WNW (300 degrees) at 20 MPH (17 knots; 8.7 m/s)
Visibility:6 or more sm (10+ km)
Ceiling:at least 12,000 feet AGL
Clouds:sky clear below 12,000 feet AGL
Text:EKRN 310050Z AUTO 30016G26KT 270V330 9999 NCD 04/M01 Q1006
Temperature: 4.0°C ( 39°F)
Dewpoint: -1.0°C ( 30°F) [RH = 70%]
Pressure (altimeter):29.70 inches Hg (1006.0 mb)
Winds:from the WNW (300 degrees) at 18 MPH (16 knots; 8.2 m/s) gusting to 30 MPH (26 knots; 13.4 m/s)
Visibility:6 or more sm (10+ km)
Ceiling:at least 12,000 feet AGL
Clouds:sky clear below 12,000 feet AGL
Text:EKRN 310020Z AUTO 30016KT 9999 NCD 04/M01 Q1005
Temperature: 4.0°C ( 39°F)
Dewpoint: -1.0°C ( 30°F) [RH = 70%]
Pressure (altimeter):29.68 inches Hg (1005.0 mb)
Winds:from the WNW (300 degrees) at 18 MPH (16 knots; 8.2 m/s)
Visibility:6 or more sm (10+ km)
Ceiling:at least 12,000 feet AGL
Clouds:sky clear below 12,000 feet AGL
Text:EKRN 302350Z AUTO 30015KT 9999 NCD 04/M01 Q1005
Temperature: 4.0°C ( 39°F)
Dewpoint: -1.0°C ( 30°F) [RH = 70%]
Pressure (altimeter):29.68 inches Hg (1005.0 mb)
Winds:from the WNW (300 degrees) at 17 MPH (15 knots; 7.7 m/s)
Visibility:6 or more sm (10+ km)
Ceiling:at least 12,000 feet AGL
Clouds:sky clear below 12,000 feet AGL
Text:EKRN 302320Z AUTO 30017G27KT 270V330 9999 NCD 04/M01 Q1004
Temperature: 4.0°C ( 39°F)
Dewpoint: -1.0°C ( 30°F) [RH = 70%]
Pressure (altimeter):29.65 inches Hg (1004.0 mb)
Winds:from the WNW (300 degrees) at 20 MPH (17 knots; 8.7 m/s) gusting to 31 MPH (27 knots; 13.9 m/s)
Visibility:6 or more sm (10+ km)
Ceiling:at least 12,000 feet AGL
Clouds:sky clear below 12,000 feet AGL
Text:EKRN 302250Z AUTO 30015G28KT 9999 NCD 04/M01 Q1004
Temperature: 4.0°C ( 39°F)
Dewpoint: -1.0°C ( 30°F) [RH = 70%]
Pressure (altimeter):29.65 inches Hg (1004.0 mb)
Winds:from the WNW (300 degrees) at 17 MPH (15 knots; 7.7 m/s) gusting to 32 MPH (28 knots; 14.4 m/s)
Visibility:6 or more sm (10+ km)
Ceiling:at least 12,000 feet AGL
Clouds:sky clear below 12,000 feet AGL
Text:EKRN 302220Z AUTO 30017KT 9999 NCD 04/M01 Q1004
Temperature: 4.0°C ( 39°F)
Dewpoint: -1.0°C ( 30°F) [RH = 70%]
Pressure (altimeter):29.65 inches Hg (1004.0 mb)
Winds:from the WNW (300 degrees) at 20 MPH (17 knots; 8.7 m/s)
Visibility:6 or more sm (10+ km)
Ceiling:at least 12,000 feet AGL
Clouds:sky clear below 12,000 feet AGL
Text:EKRN 302150Z AUTO 30017G29KT 9999 NCD 05/M01 Q1003
Temperature: 5.0°C ( 41°F)
Dewpoint: -1.0°C ( 30°F) [RH = 65%]
Pressure (altimeter):29.62 inches Hg (1003.0 mb)
Winds:from the WNW (300 degrees) at 20 MPH (17 knots; 8.7 m/s) gusting to 33 MPH (29 knots; 14.9 m/s)
Visibility:6 or more sm (10+ km)
Ceiling:at least 12,000 feet AGL
Clouds:sky clear below 12,000 feet AGL
Text:EKRN 302120Z AUTO 30017G28KT 9999 NCD 05/M01 Q1002
Temperature: 5.0°C ( 41°F)
Dewpoint: -1.0°C ( 30°F) [RH = 65%]
Pressure (altimeter):29.59 inches Hg (1002.0 mb)
Winds:from the WNW (300 degrees) at 20 MPH (17 knots; 8.7 m/s) gusting to 32 MPH (28 knots; 14.4 m/s)
Visibility:6 or more sm (10+ km)
Ceiling:at least 12,000 feet AGL
Clouds:sky clear below 12,000 feet AGL
Text:EKRN 302050Z AUTO 30016KT 9999 NCD 05/00 Q1002
Temperature: 5.0°C ( 41°F)
Dewpoint: 0.0°C ( 32°F) [RH = 70%]
Pressure (altimeter):29.59 inches Hg (1002.0 mb)
Winds:from the WNW (300 degrees) at 18 MPH (16 knots; 8.2 m/s)
Visibility:6 or more sm (10+ km)
Ceiling:at least 12,000 feet AGL
Clouds:sky clear below 12,000 feet AGL
Text:EKRN 302020Z AUTO 30017G32KT 270V330 9999 NCD 05/00 Q1001
Temperature: 5.0°C ( 41°F)
Dewpoint: 0.0°C ( 32°F) [RH = 70%]
Pressure (altimeter):29.56 inches Hg (1001.0 mb)
Winds:from the WNW (300 degrees) at 20 MPH (17 knots; 8.7 m/s) gusting to 37 MPH (32 knots; 16.5 m/s)
Visibility:6 or more sm (10+ km)
Ceiling:at least 12,000 feet AGL
Clouds:sky clear below 12,000 feet AGL
Text:EKRN 301950Z AUTO 30017G29KT 9999 NCD 05/00 Q1000
Temperature: 5.0°C ( 41°F)
Dewpoint: 0.0°C ( 32°F) [RH = 70%]
Pressure (altimeter):29.53 inches Hg (1000.0 mb)
Winds:from the WNW (300 degrees) at 20 MPH (17 knots; 8.7 m/s) gusting to 33 MPH (29 knots; 14.9 m/s)
Visibility:6 or more sm (10+ km)
Ceiling:at least 12,000 feet AGL
Clouds:sky clear below 12,000 feet AGL
Text:EKRN 301920Z AUTO 30018KT 9999 NCD 05/01 Q1000
Temperature: 5.0°C ( 41°F)
Dewpoint: 1.0°C ( 34°F) [RH = 75%]
Pressure (altimeter):29.53 inches Hg (1000.0 mb)
Winds:from the WNW (300 degrees) at 21 MPH (18 knots; 9.3 m/s)
Visibility:6 or more sm (10+ km)
Ceiling:at least 12,000 feet AGL
Clouds:sky clear below 12,000 feet AGL
Text:EKRN 301850Z AUTO 30017G27KT 9999 NCD 05/01 Q0999
Temperature: 5.0°C ( 41°F)
Dewpoint: 1.0°C ( 34°F) [RH = 75%]
Pressure (altimeter):29.50 inches Hg ( 999.0 mb)
Winds:from the WNW (300 degrees) at 20 MPH (17 knots; 8.7 m/s) gusting to 31 MPH (27 knots; 13.9 m/s)
Visibility:6 or more sm (10+ km)
Ceiling:at least 12,000 feet AGL
Clouds:sky clear below 12,000 feet AGL
Text:EKRN 301820Z AUTO 30016KT 9999 NCD 05/01 Q0998
Temperature: 5.0°C ( 41°F)
Dewpoint: 1.0°C ( 34°F) [RH = 75%]
Pressure (altimeter):29.47 inches Hg ( 998.0 mb)
Winds:from the WNW (300 degrees) at 18 MPH (16 knots; 8.2 m/s)
Visibility:6 or more sm (10+ km)
Ceiling:at least 12,000 feet AGL
Clouds:sky clear below 12,000 feet AGL
Text:EKRN 301750Z AUTO 29016G28KT 9999 NCD 05/02 Q0998
Temperature: 5.0°C ( 41°F)
Dewpoint: 2.0°C ( 36°F) [RH = 81%]
Pressure (altimeter):29.47 inches Hg ( 998.0 mb)
Winds:from the WNW (290 degrees) at 18 MPH (16 knots; 8.2 m/s) gusting to 32 MPH (28 knots; 14.4 m/s)
Visibility:6 or more sm (10+ km)
Ceiling:at least 12,000 feet AGL
Clouds:sky clear below 12,000 feet AGL
Text:EKRN 301720Z AUTO 29017G27KT 9999 FEW027/// 05/02 Q0997
Temperature: 5.0°C ( 41°F)
Dewpoint: 2.0°C ( 36°F) [RH = 81%]
Pressure (altimeter):29.44 inches Hg ( 997.0 mb)
Winds:from the WNW (290 degrees) at 20 MPH (17 knots; 8.7 m/s) gusting to 31 MPH (27 knots; 13.9 m/s)
Visibility:6 or more sm (10+ km)
Ceiling:at least 12,000 feet AGL
Clouds: few clouds at 2700 feet AGL
Text:EKRN 301650Z AUTO 29018KT 9999 SCT028/// BKN041/// 05/02 Q0997
Temperature: 5.0°C ( 41°F)
Dewpoint: 2.0°C ( 36°F) [RH = 81%]
Pressure (altimeter):29.44 inches Hg ( 997.0 mb)
Winds:from the WNW (290 degrees) at 21 MPH (18 knots; 9.3 m/s)
Visibility:6 or more sm (10+ km)
Ceiling:4100 feet AGL
Clouds: scattered clouds at 2800 feet AGL, broken clouds at 4100 feet AGL
Text:EKRN 301620Z AUTO 28021KT 9999 FEW028/// BKN044/// 05/02 Q0996
Temperature: 5.0°C ( 41°F)
Dewpoint: 2.0°C ( 36°F) [RH = 81%]
Pressure (altimeter):29.41 inches Hg ( 996.0 mb)
Winds:from the W (280 degrees) at 24 MPH (21 knots; 10.8 m/s)
Visibility:6 or more sm (10+ km)
Ceiling:4400 feet AGL
Clouds: few clouds at 2800 feet AGL, broken clouds at 4400 feet AGL
Text:EKRN 301550Z AUTO 27022KT 9999 OVC027/// 05/02 Q0996
Temperature: 5.0°C ( 41°F)
Dewpoint: 2.0°C ( 36°F) [RH = 81%]
Pressure (altimeter):29.41 inches Hg ( 996.0 mb)
Winds:from the W (270 degrees) at 25 MPH (22 knots; 11.3 m/s)
Visibility:6 or more sm (10+ km)
Ceiling:2700 feet AGL
Clouds: overcast cloud deck at 2700 feet AGL
Text:EKRN 301520Z AUTO 27021KT 9999 OVC024/// 05/02 Q0996
Temperature: 5.0°C ( 41°F)
Dewpoint: 2.0°C ( 36°F) [RH = 81%]
Pressure (altimeter):29.41 inches Hg ( 996.0 mb)
Winds:from the W (270 degrees) at 24 MPH (21 knots; 10.8 m/s)
Visibility:6 or more sm (10+ km)
Ceiling:2400 feet AGL
Clouds: overcast cloud deck at 2400 feet AGL
Text:EKRN 301450Z AUTO 27022KT 9999 OVC022/// 05/02 Q0995
Temperature: 5.0°C ( 41°F)
Dewpoint: 2.0°C ( 36°F) [RH = 81%]
Pressure (altimeter):29.38 inches Hg ( 995.0 mb)
Winds:from the W (270 degrees) at 25 MPH (22 knots; 11.3 m/s)
Visibility:6 or more sm (10+ km)
Ceiling:2200 feet AGL
Clouds: overcast cloud deck at 2200 feet AGL
Text:EKRN 301420Z AUTO 27022KT 9999 FEW017/// BKN025/// 05/03 Q0995
Temperature: 5.0°C ( 41°F)
Dewpoint: 3.0°C ( 37°F) [RH = 87%]
Pressure (altimeter):29.38 inches Hg ( 995.0 mb)
Winds:from the W (270 degrees) at 25 MPH (22 knots; 11.3 m/s)
Visibility:6 or more sm (10+ km)
Ceiling:2500 feet AGL
Clouds: few clouds at 1700 feet AGL, broken clouds at 2500 feet AGL

TAF for:EKRN (Ronne/Bornholm Arpt, HO, DK) issued at 2314 UTC 31 Jan 2023
Text:TAF EKRN 312314Z 0100/0109 26020G32KT 9999 BKN020
Forecast period:0000 to 0900 UTC 01 February 2023
Forecast type:FROM: standard forecast or significant change
Winds:from the W (260 degrees) at 23 MPH (20 knots; 10.3 m/s) gusting to 37 MPH (32 knots; 16.5 m/s)
Visibility:6 or more sm (10+ km)
Ceiling:2000 feet AGL
Clouds: broken clouds at 2000 feet AGL
Text:TEMPO 0100/0107 28033G48KT 4000 SHRA BKN010 SCT020CB
Forecast period:0000 to 0700 UTC 01 February 2023
Forecast type:TEMPORARY: The following changes expected for less than half the time period
Winds:from the W (280 degrees) at 38 MPH (33 knots; 17.0 m/s) gusting to 55 MPH (48 knots; 24.7 m/s)
Visibility: 2.49 sm ( 4.01 km)
Ceiling:1000 feet AGL
Clouds: broken clouds at 1000 feet AGL, scattered clouds at 2000 feet AGL
Weather:SHRA (rain showers)
Text:TEMPO 0107/0109 28028G40KT 4000 SHRA BKN010 SCT020CB
Forecast period:0700 to 0900 UTC 01 February 2023
Forecast type:TEMPORARY: The following changes expected for less than half the time period
Winds:from the W (280 degrees) at 32 MPH (28 knots; 14.4 m/s) gusting to 46 MPH (40 knots; 20.6 m/s)
Visibility: 2.49 sm ( 4.01 km)
Ceiling:1000 feet AGL
Clouds: broken clouds at 1000 feet AGL, scattered clouds at 2000 feet AGL
Weather:SHRA (rain showers)